sensor_id;sensor_type;location;lat;lon;timestamp;temperature;humidity
16076;DHT22;8142;48.242;11.644;2022-08-25T00:01:51;18.50;99.90
16076;DHT22;8142;48.242;11.644;2022-08-25T00:04:19;18.50;99.90
16076;DHT22;8142;48.242;11.644;2022-08-25T00:06:46;18.40;99.90
16076;DHT22;8142;48.242;11.644;2022-08-25T00:09:14;18.30;99.90
16076;DHT22;8142;48.242;11.644;2022-08-25T00:11:41;18.10;99.90
16076;DHT22;8142;48.242;11.644;2022-08-25T00:14:13;17.90;99.90
16076;DHT22;8142;48.242;11.644;2022-08-25T00:16:39;17.60;99.90
16076;DHT22;8142;48.242;11.644;2022-08-25T00:19:11;17.40;99.90
16076;DHT22;8142;48.242;11.644;2022-08-25T00:21:37;17.30;99.90
16076;DHT22;8142;48.242;11.644;2022-08-25T00:24:04;17.10;99.90
16076;DHT22;8142;48.242;11.644;2022-08-25T00:26:30;16.90;99.90
16076;DHT22;8142;48.242;11.644;2022-08-25T00:28:56;16.80;99.90
16076;DHT22;8142;48.242;11.644;2022-08-25T00:31:22;16.70;99.90
16076;DHT22;8142;48.242;11.644;2022-08-25T00:33:50;16.60;99.90
16076;DHT22;8142;48.242;11.644;2022-08-25T00:36:17;16.50;99.90
16076;DHT22;8142;48.242;11.644;2022-08-25T00:38:45;16.50;99.90
16076;DHT22;8142;48.242;11.644;2022-08-25T00:41:17;16.50;99.90
16076;DHT22;8142;48.242;11.644;2022-08-25T00:43:54;16.40;99.90
16076;DHT22;8142;48.242;11.644;2022-08-25T00:46:25;16.50;99.90
16076;DHT22;8142;48.242;11.644;2022-08-25T00:48:56;16.50;99.90
16076;DHT22;8142;48.242;11.644;2022-08-25T00:51:36;16.50;99.90
16076;DHT22;8142;48.242;11.644;2022-08-25T00:54:04;16.60;99.90
16076;DHT22;8142;48.242;11.644;2022-08-25T00:56:31;16.70;99.90
16076;DHT22;8142;48.242;11.644;2022-08-25T00:58:59;16.80;99.90
16076;DHT22;8142;48.242;11.644;2022-08-25T01:01:26;16.80;99.90
16076;DHT22;8142;48.242;11.644;2022-08-25T01:03:52;17.00;99.90
16076;DHT22;8142;48.242;11.644;2022-08-25T01:06:18;17.10;99.90
16076;DHT22;8142;48.242;11.644;2022-08-25T01:08:44;17.20;99.90
16076;DHT22;8142;48.242;11.644;2022-08-25T01:11:11;17.20;99.90
16076;DHT22;8142;48.242;11.644;2022-08-25T01:13:44;17.30;99.90
16076;DHT22;8142;48.242;11.644;2022-08-25T01:16:12;17.30;99.90
16076;DHT22;8142;48.242;11.644;2022-08-25T01:18:57;17.40;99.90
16076;DHT22;8142;48.242;11.644;2022-08-25T01:21:27;17.40;99.90
16076;DHT22;8142;48.242;11.644;2022-08-25T01:23:56;17.50;99.90
16076;DHT22;8142;48.242;11.644;2022-08-25T01:26:32;17.60;99.90
16076;DHT22;8142;48.242;11.644;2022-08-25T01:29:00;17.60;99.90
16076;DHT22;8142;48.242;11.644;2022-08-25T01:31:44;17.70;99.90
16076;DHT22;8142;48.242;11.644;2022-08-25T01:34:11;17.70;99.90
16076;DHT22;8142;48.242;11.644;2022-08-25T01:36:39;17.70;99.90
16076;DHT22;8142;48.242;11.644;2022-08-25T01:39:05;17.70;99.90
16076;DHT22;8142;48.242;11.644;2022-08-25T01:44:06;17.80;99.90
16076;DHT22;8142;48.242;11.644;2022-08-25T01:46:33;17.80;99.90
16076;DHT22;8142;48.242;11.644;2022-08-25T01:49:01;17.80;99.90
16076;DHT22;8142;48.242;11.644;2022-08-25T01:51:32;17.80;99.90
16076;DHT22;8142;48.242;11.644;2022-08-25T01:53:59;17.80;99.90
16076;DHT22;8142;48.242;11.644;2022-08-25T01:56:25;17.70;99.90
16076;DHT22;8142;48.242;11.644;2022-08-25T01:58:52;17.70;99.90
16076;DHT22;8142;48.242;11.644;2022-08-25T02:01:20;17.70;99.90
16076;DHT22;8142;48.242;11.644;2022-08-25T02:03:49;17.60;99.90
16076;DHT22;8142;48.242;11.644;2022-08-25T02:06:29;17.60;99.90
16076;DHT22;8142;48.242;11.644;2022-08-25T02:09:04;17.60;99.90
16076;DHT22;8142;48.242;11.644;2022-08-25T02:11:30;17.50;99.90
16076;DHT22;8142;48.242;11.644;2022-08-25T02:13:57;17.50;99.90
16076;DHT22;8142;48.242;11.644;2022-08-25T02:16:27;17.50;99.90
16076;DHT22;8142;48.242;11.644;2022-08-25T02:18:54;17.60;99.90
16076;DHT22;8142;48.242;11.644;2022-08-25T02:21:21;17.60;99.90
16076;DHT22;8142;48.242;11.644;2022-08-25T02:23:46;17.60;99.90
16076;DHT22;8142;48.242;11.644;2022-08-25T02:26:13;17.60;99.90
16076;DHT22;8142;48.242;11.644;2022-08-25T02:28:44;17.70;99.90
16076;DHT22;8142;48.242;11.644;2022-08-25T02:31:11;17.70;99.90
16076;DHT22;8142;48.242;11.644;2022-08-25T02:33:37;17.70;99.90
16076;DHT22;8142;48.242;11.644;2022-08-25T02:36:04;17.70;99.90
16076;DHT22;8142;48.242;11.644;2022-08-25T02:38:30;17.70;99.90
16076;DHT22;8142;48.242;11.644;2022-08-25T02:40:57;17.70;99.90
16076;DHT22;8142;48.242;11.644;2022-08-25T02:43:24;17.70;99.90
16076;DHT22;8142;48.242;11.644;2022-08-25T02:45:52;17.70;99.90
16076;DHT22;8142;48.242;11.644;2022-08-25T02:48:18;17.60;99.90
16076;DHT22;8142;48.242;11.644;2022-08-25T02:50:48;17.70;99.90
16076;DHT22;8142;48.242;11.644;2022-08-25T02:53:16;17.70;99.90
16076;DHT22;8142;48.242;11.644;2022-08-25T02:55:42;17.70;99.90
16076;DHT22;8142;48.242;11.644;2022-08-25T02:58:08;17.70;99.90
16076;DHT22;8142;48.242;11.644;2022-08-25T03:00:35;17.70;99.90
16076;DHT22;8142;48.242;11.644;2022-08-25T03:03:02;17.70;99.90
16076;DHT22;8142;48.242;11.644;2022-08-25T03:05:28;17.70;99.90
16076;DHT22;8142;48.242;11.644;2022-08-25T03:07:54;17.70;99.90
16076;DHT22;8142;48.242;11.644;2022-08-25T03:10:20;17.60;99.90
16076;DHT22;8142;48.242;11.644;2022-08-25T03:12:46;17.60;99.90
16076;DHT22;8142;48.242;11.644;2022-08-25T03:15:15;17.60;99.90
16076;DHT22;8142;48.242;11.644;2022-08-25T03:17:42;17.60;99.90
16076;DHT22;8142;48.242;11.644;2022-08-25T03:20:08;17.60;99.90
16076;DHT22;8142;48.242;11.644;2022-08-25T03:22:34;17.60;99.90
16076;DHT22;8142;48.242;11.644;2022-08-25T03:25:02;17.60;99.90
16076;DHT22;8142;48.242;11.644;2022-08-25T03:27:46;17.60;99.90
16076;DHT22;8142;48.242;11.644;2022-08-25T03:30:14;17.60;99.90
16076;DHT22;8142;48.242;11.644;2022-08-25T03:32:41;17.60;99.90
16076;DHT22;8142;48.242;11.644;2022-08-25T03:35:08;17.50;99.90
16076;DHT22;8142;48.242;11.644;2022-08-25T03:37:34;17.50;99.90
16076;DHT22;8142;48.242;11.644;2022-08-25T03:40:03;17.50;99.90
16076;DHT22;8142;48.242;11.644;2022-08-25T03:42:29;17.40;99.90
16076;DHT22;8142;48.242;11.644;2022-08-25T03:44:55;17.40;99.90
16076;DHT22;8142;48.242;11.644;2022-08-25T03:47:21;17.40;99.90
16076;DHT22;8142;48.242;11.644;2022-08-25T03:49:50;17.40;99.90
16076;DHT22;8142;48.242;11.644;2022-08-25T03:52:16;17.30;99.90
16076;DHT22;8142;48.242;11.644;2022-08-25T03:54:43;17.30;99.90
16076;DHT22;8142;48.242;11.644;2022-08-25T03:57:10;17.40;99.90
16076;DHT22;8142;48.242;11.644;2022-08-25T03:59:36;17.40;99.90
16076;DHT22;8142;48.242;11.644;2022-08-25T04:02:06;17.30;99.90
16076;DHT22;8142;48.242;11.644;2022-08-25T04:04:32;17.30;99.90
16076;DHT22;8142;48.242;11.644;2022-08-25T04:06:58;17.30;99.90
16076;DHT22;8142;48.242;11.644;2022-08-25T04:09:24;17.30;99.90
16076;DHT22;8142;48.242;11.644;2022-08-25T04:11:50;17.30;99.90
16076;DHT22;8142;48.242;11.644;2022-08-25T04:14:17;17.30;99.90
16076;DHT22;8142;48.242;11.644;2022-08-25T04:16:43;17.30;99.90
16076;DHT22;8142;48.242;11.644;2022-08-25T04:19:11;17.30;99.90
16076;DHT22;8142;48.242;11.644;2022-08-25T04:21:38;17.30;99.90
16076;DHT22;8142;48.242;11.644;2022-08-25T04:24:06;17.30;99.90
16076;DHT22;8142;48.242;11.644;2022-08-25T04:26:36;17.30;99.90
16076;DHT22;8142;48.242;11.644;2022-08-25T04:29:04;17.40;99.90
16076;DHT22;8142;48.242;11.644;2022-08-25T04:31:31;17.30;99.90
16076;DHT22;8142;48.242;11.644;2022-08-25T04:34:04;17.30;99.90
16076;DHT22;8142;48.242;11.644;2022-08-25T04:36:31;17.30;99.90
16076;DHT22;8142;48.242;11.644;2022-08-25T04:38:57;17.30;99.90
16076;DHT22;8142;48.242;11.644;2022-08-25T04:41:24;17.30;99.90
16076;DHT22;8142;48.242;11.644;2022-08-25T04:43:51;17.40;99.90
16076;DHT22;8142;48.242;11.644;2022-08-25T04:46:22;17.30;99.90
16076;DHT22;8142;48.242;11.644;2022-08-25T04:48:50;17.30;99.90
16076;DHT22;8142;48.242;11.644;2022-08-25T04:51:20;17.30;99.90
16076;DHT22;8142;48.242;11.644;2022-08-25T04:53:48;17.30;99.90
16076;DHT22;8142;48.242;11.644;2022-08-25T04:56:16;17.40;99.90
16076;DHT22;8142;48.242;11.644;2022-08-25T04:58:44;17.40;99.90
16076;DHT22;8142;48.242;11.644;2022-08-25T05:01:14;17.40;99.90
16076;DHT22;8142;48.242;11.644;2022-08-25T05:03:41;17.40;99.90
16076;DHT22;8142;48.242;11.644;2022-08-25T05:06:07;17.30;99.90
16076;DHT22;8142;48.242;11.644;2022-08-25T05:08:34;17.40;99.90
16076;DHT22;8142;48.242;11.644;2022-08-25T05:11:05;17.30;99.90
16076;DHT22;8142;48.242;11.644;2022-08-25T05:13:31;17.30;99.90
16076;DHT22;8142;48.242;11.644;2022-08-25T05:15:58;17.40;99.90
16076;DHT22;8142;48.242;11.644;2022-08-25T05:18:27;17.40;99.90
16076;DHT22;8142;48.242;11.644;2022-08-25T05:20:54;17.40;99.90
16076;DHT22;8142;48.242;11.644;2022-08-25T05:23:24;17.50;99.90
16076;DHT22;8142;48.242;11.644;2022-08-25T05:25:51;17.50;99.90
16076;DHT22;8142;48.242;11.644;2022-08-25T05:28:18;17.60;99.90
16076;DHT22;8142;48.242;11.644;2022-08-25T05:30:44;17.70;99.90
16076;DHT22;8142;48.242;11.644;2022-08-25T05:33:13;17.80;99.90
16076;DHT22;8142;48.242;11.644;2022-08-25T05:35:40;17.90;99.90
16076;DHT22;8142;48.242;11.644;2022-08-25T05:38:06;18.10;99.90
16076;DHT22;8142;48.242;11.644;2022-08-25T05:40:33;18.30;99.90
16076;DHT22;8142;48.242;11.644;2022-08-25T05:42:59;18.50;99.90
16076;DHT22;8142;48.242;11.644;2022-08-25T05:45:25;18.60;99.90
16076;DHT22;8142;48.242;11.644;2022-08-25T05:47:51;18.80;99.90
16076;DHT22;8142;48.242;11.644;2022-08-25T05:50:17;19.00;99.90
16076;DHT22;8142;48.242;11.644;2022-08-25T05:52:43;19.20;99.90
16076;DHT22;8142;48.242;11.644;2022-08-25T05:55:09;19.40;99.90
16076;DHT22;8142;48.242;11.644;2022-08-25T05:57:36;19.50;99.90
16076;DHT22;8142;48.242;11.644;2022-08-25T06:00:04;19.70;99.90
16076;DHT22;8142;48.242;11.644;2022-08-25T06:02:31;19.80;99.90
16076;DHT22;8142;48.242;11.644;2022-08-25T06:05:10;20.00;99.90
16076;DHT22;8142;48.242;11.644;2022-08-25T06:07:36;20.20;99.90
16076;DHT22;8142;48.242;11.644;2022-08-25T06:10:04;20.40;99.90
16076;DHT22;8142;48.242;11.644;2022-08-25T06:12:34;20.60;99.90
16076;DHT22;8142;48.242;11.644;2022-08-25T06:15:01;20.80;99.90
16076;DHT22;8142;48.242;11.644;2022-08-25T06:17:28;20.90;99.90
16076;DHT22;8142;48.242;11.644;2022-08-25T06:19:54;21.10;99.90
16076;DHT22;8142;48.242;11.644;2022-08-25T06:22:20;21.20;99.90
16076;DHT22;8142;48.242;11.644;2022-08-25T06:24:46;21.30;99.90
16076;DHT22;8142;48.242;11.644;2022-08-25T06:27:12;21.50;99.90
16076;DHT22;8142;48.242;11.644;2022-08-25T06:29:38;21.60;99.90
16076;DHT22;8142;48.242;11.644;2022-08-25T06:32:04;21.70;99.90
16076;DHT22;8142;48.242;11.644;2022-08-25T06:34:30;21.90;99.90
16076;DHT22;8142;48.242;11.644;2022-08-25T06:36:57;22.00;99.90
16076;DHT22;8142;48.242;11.644;2022-08-25T06:39:23;22.10;99.90
16076;DHT22;8142;48.242;11.644;2022-08-25T06:41:53;22.20;99.90
16076;DHT22;8142;48.242;11.644;2022-08-25T06:44:20;22.30;99.90
16076;DHT22;8142;48.242;11.644;2022-08-25T06:46:46;22.40;99.90
16076;DHT22;8142;48.242;11.644;2022-08-25T06:49:12;22.40;99.90
16076;DHT22;8142;48.242;11.644;2022-08-25T06:51:38;22.40;99.90
16076;DHT22;8142;48.242;11.644;2022-08-25T06:54:05;22.30;99.90
16076;DHT22;8142;48.242;11.644;2022-08-25T06:56:31;22.40;99.90
16076;DHT22;8142;48.242;11.644;2022-08-25T06:59:03;22.30;99.90
16076;DHT22;8142;48.242;11.644;2022-08-25T07:01:29;22.30;99.90
16076;DHT22;8142;48.242;11.644;2022-08-25T07:03:57;22.30;99.90
16076;DHT22;8142;48.242;11.644;2022-08-25T07:06:29;22.30;99.90
16076;DHT22;8142;48.242;11.644;2022-08-25T07:08:56;22.30;99.90
16076;DHT22;8142;48.242;11.644;2022-08-25T07:11:22;22.40;99.90
16076;DHT22;8142;48.242;11.644;2022-08-25T07:13:49;22.50;99.90
16076;DHT22;8142;48.242;11.644;2022-08-25T07:16:17;22.60;99.90
16076;DHT22;8142;48.242;11.644;2022-08-25T07:18:43;22.70;99.90
16076;DHT22;8142;48.242;11.644;2022-08-25T07:21:11;22.90;99.90
16076;DHT22;8142;48.242;11.644;2022-08-25T07:23:37;23.00;99.90
16076;DHT22;8142;48.242;11.644;2022-08-25T07:26:13;23.20;99.90
16076;DHT22;8142;48.242;11.644;2022-08-25T07:28:39;23.40;99.90
16076;DHT22;8142;48.242;11.644;2022-08-25T07:31:05;23.50;99.90
16076;DHT22;8142;48.242;11.644;2022-08-25T07:33:31;23.60;99.90
16076;DHT22;8142;48.242;11.644;2022-08-25T07:35:57;23.70;99.90
16076;DHT22;8142;48.242;11.644;2022-08-25T07:38:23;23.80;99.90
16076;DHT22;8142;48.242;11.644;2022-08-25T07:40:49;23.80;99.90
16076;DHT22;8142;48.242;11.644;2022-08-25T07:43:20;23.80;99.90
16076;DHT22;8142;48.242;11.644;2022-08-25T07:45:47;23.80;99.90
16076;DHT22;8142;48.242;11.644;2022-08-25T07:48:13;23.80;99.90
16076;DHT22;8142;48.242;11.644;2022-08-25T07:50:42;23.80;99.90
16076;DHT22;8142;48.242;11.644;2022-08-25T07:53:12;23.90;99.90
16076;DHT22;8142;48.242;11.644;2022-08-25T07:55:38;24.00;99.90
16076;DHT22;8142;48.242;11.644;2022-08-25T07:58:07;24.10;99.90
16076;DHT22;8142;48.242;11.644;2022-08-25T08:00:35;24.20;99.90
16076;DHT22;8142;48.242;11.644;2022-08-25T08:03:04;24.40;99.90
16076;DHT22;8142;48.242;11.644;2022-08-25T08:05:30;24.50;99.90
16076;DHT22;8142;48.242;11.644;2022-08-25T08:07:57;24.60;99.90
16076;DHT22;8142;48.242;11.644;2022-08-25T08:10:23;24.70;99.90
16076;DHT22;8142;48.242;11.644;2022-08-25T08:12:50;24.80;99.90
16076;DHT22;8142;48.242;11.644;2022-08-25T08:15:16;24.90;99.90
16076;DHT22;8142;48.242;11.644;2022-08-25T08:17:42;25.00;99.90
16076;DHT22;8142;48.242;11.644;2022-08-25T08:20:09;25.20;99.90
16076;DHT22;8142;48.242;11.644;2022-08-25T08:22:38;25.30;99.90
16076;DHT22;8142;48.242;11.644;2022-08-25T08:25:07;25.30;99.90
16076;DHT22;8142;48.242;11.644;2022-08-25T08:27:33;25.40;99.90
16076;DHT22;8142;48.242;11.644;2022-08-25T08:30:00;25.50;99.90
16076;DHT22;8142;48.242;11.644;2022-08-25T08:32:26;25.60;99.90
16076;DHT22;8142;48.242;11.644;2022-08-25T08:34:52;25.70;99.90
16076;DHT22;8142;48.242;11.644;2022-08-25T08:37:18;25.80;99.90
16076;DHT22;8142;48.242;11.644;2022-08-25T08:39:44;25.90;99.90
16076;DHT22;8142;48.242;11.644;2022-08-25T08:42:46;25.90;99.90
16076;DHT22;8142;48.242;11.644;2022-08-25T08:45:32;25.80;99.90
16076;DHT22;8142;48.242;11.644;2022-08-25T08:48:15;25.70;99.90
16076;DHT22;8142;48.242;11.644;2022-08-25T08:50:50;25.50;99.90
16076;DHT22;8142;48.242;11.644;2022-08-25T08:53:38;25.40;99.90
16076;DHT22;8142;48.242;11.644;2022-08-25T08:56:10;25.10;99.90
16076;DHT22;8142;48.242;11.644;2022-08-25T08:58:50;24.90;99.90
16076;DHT22;8142;48.242;11.644;2022-08-25T09:01:32;24.70;99.90
16076;DHT22;8142;48.242;11.644;2022-08-25T09:06:48;24.30;99.90
16076;DHT22;8142;48.242;11.644;2022-08-25T09:09:25;24.10;99.90
16076;DHT22;8142;48.242;11.644;2022-08-25T09:12:14;24.00;99.90
16076;DHT22;8142;48.242;11.644;2022-08-25T09:18:08;23.60;99.90
16076;DHT22;8142;48.242;11.644;2022-08-25T09:21:00;23.50;99.90
16076;DHT22;8142;48.242;11.644;2022-08-25T09:29:13;23.30;99.90
16076;DHT22;8142;48.242;11.644;2022-08-25T09:31:41;23.20;99.90
16076;DHT22;8142;48.242;11.644;2022-08-25T09:34:16;23.20;99.90
16076;DHT22;8142;48.242;11.644;2022-08-25T09:36:42;23.20;99.90
16076;DHT22;8142;48.242;11.644;2022-08-25T09:39:10;23.20;99.90
16076;DHT22;8142;48.242;11.644;2022-08-25T09:41:50;23.20;99.90
16076;DHT22;8142;48.242;11.644;2022-08-25T09:44:19;23.20;99.90
16076;DHT22;8142;48.242;11.644;2022-08-25T09:47:02;23.30;99.90
16076;DHT22;8142;48.242;11.644;2022-08-25T09:54:48;23.40;99.90
16076;DHT22;8142;48.242;11.644;2022-08-25T09:57:31;23.40;99.90
16076;DHT22;8142;48.242;11.644;2022-08-25T10:00:14;23.40;99.90
16076;DHT22;8142;48.242;11.644;2022-08-25T10:02:41;23.40;99.90
16076;DHT22;8142;48.242;11.644;2022-08-25T10:05:22;23.50;99.90
16076;DHT22;8142;48.242;11.644;2022-08-25T10:07:58;23.50;99.90
16076;DHT22;8142;48.242;11.644;2022-08-25T10:10:42;23.50;99.90
16076;DHT22;8142;48.242;11.644;2022-08-25T10:13:15;23.50;99.90
16076;DHT22;8142;48.242;11.644;2022-08-25T10:15:43;23.50;99.90
16076;DHT22;8142;48.242;11.644;2022-08-25T10:23:26;23.50;99.90
16076;DHT22;8142;48.242;11.644;2022-08-25T10:25:53;23.50;99.90
16076;DHT22;8142;48.242;11.644;2022-08-25T10:31:35;23.50;99.90
16076;DHT22;8142;48.242;11.644;2022-08-25T10:37:04;23.40;99.90
16076;DHT22;8142;48.242;11.644;2022-08-25T10:45:25;23.40;99.90
16076;DHT22;8142;48.242;11.644;2022-08-25T10:56:35;23.40;99.90
16076;DHT22;8142;48.242;11.644;2022-08-25T11:04:44;23.50;99.90
16076;DHT22;8142;48.242;11.644;2022-08-25T11:07:36;23.50;99.90
16076;DHT22;8142;48.242;11.644;2022-08-25T11:10:15;23.50;99.90
16076;DHT22;8142;48.242;11.644;2022-08-25T11:12:56;23.60;99.90
16076;DHT22;8142;48.242;11.644;2022-08-25T11:15:35;23.60;99.90
16076;DHT22;8142;48.242;11.644;2022-08-25T11:18:09;23.60;99.90
16076;DHT22;8142;48.242;11.644;2022-08-25T11:20:44;23.60;99.90
16076;DHT22;8142;48.242;11.644;2022-08-25T11:24:01;23.60;99.90
16076;DHT22;8142;48.242;11.644;2022-08-25T11:26:20;23.70;99.90
16076;DHT22;8142;48.242;11.644;2022-08-25T11:29:10;23.70;99.90
16076;DHT22;8142;48.242;11.644;2022-08-25T11:31:39;23.70;99.90
16076;DHT22;8142;48.242;11.644;2022-08-25T11:34:11;23.80;99.90
16076;DHT22;8142;48.242;11.644;2022-08-25T11:36:47;23.80;99.90
16076;DHT22;8142;48.242;11.644;2022-08-25T11:42:54;23.80;99.90
16076;DHT22;8142;48.242;11.644;2022-08-25T11:50:33;23.80;99.90
16076;DHT22;8142;48.242;11.644;2022-08-25T11:53:24;23.80;99.90
16076;DHT22;8142;48.242;11.644;2022-08-25T11:55:53;23.90;99.90
16076;DHT22;8142;48.242;11.644;2022-08-25T12:00:47;24.00;99.90
16076;DHT22;8142;48.242;11.644;2022-08-25T12:03:45;24.00;99.90
16076;DHT22;8142;48.242;11.644;2022-08-25T12:29:44;24.40;99.90
16076;DHT22;8142;48.242;11.644;2022-08-25T12:35:50;24.40;99.90
16076;DHT22;8142;48.242;11.644;2022-08-25T12:38:37;24.50;99.90
16076;DHT22;8142;48.242;11.644;2022-08-25T12:41:07;24.50;99.90
16076;DHT22;8142;48.242;11.644;2022-08-25T12:43:45;24.50;99.90
16076;DHT22;8142;48.242;11.644;2022-08-25T12:54:44;24.60;99.90
16076;DHT22;8142;48.242;11.644;2022-08-25T12:57:40;24.60;99.90
16076;DHT22;8142;48.242;11.644;2022-08-25T13:00:19;24.70;99.90
16076;DHT22;8142;48.242;11.644;2022-08-25T13:03:41;24.70;99.90
16076;DHT22;8142;48.242;11.644;2022-08-25T13:11:54;24.70;99.90
16076;DHT22;8142;48.242;11.644;2022-08-25T13:14:33;24.70;99.90
16076;DHT22;8142;48.242;11.644;2022-08-25T13:17:00;24.70;99.90
16076;DHT22;8142;48.242;11.644;2022-08-25T13:19:28;24.70;99.90
16076;DHT22;8142;48.242;11.644;2022-08-25T13:21:56;24.70;99.90
16076;DHT22;8142;48.242;11.644;2022-08-25T13:24:29;24.70;99.90
16076;DHT22;8142;48.242;11.644;2022-08-25T13:27:02;24.70;99.90
16076;DHT22;8142;48.242;11.644;2022-08-25T13:29:31;24.70;99.90
16076;DHT22;8142;48.242;11.644;2022-08-25T13:31:58;24.70;99.90
16076;DHT22;8142;48.242;11.644;2022-08-25T13:34:34;24.70;99.90
16076;DHT22;8142;48.242;11.644;2022-08-25T13:37:14;24.70;99.90
16076;DHT22;8142;48.242;11.644;2022-08-25T13:42:46;24.70;99.90
16076;DHT22;8142;48.242;11.644;2022-08-25T13:45:20;24.70;99.90
16076;DHT22;8142;48.242;11.644;2022-08-25T13:47:47;24.70;99.90
16076;DHT22;8142;48.242;11.644;2022-08-25T13:52:39;24.70;99.90
16076;DHT22;8142;48.242;11.644;2022-08-25T13:55:06;24.70;99.90
16076;DHT22;8142;48.242;11.644;2022-08-25T13:57:32;24.70;99.90
16076;DHT22;8142;48.242;11.644;2022-08-25T14:00:02;24.70;99.90
16076;DHT22;8142;48.242;11.644;2022-08-25T14:02:48;24.70;99.90
16076;DHT22;8142;48.242;11.644;2022-08-25T14:05:28;24.70;99.90
16076;DHT22;8142;48.242;11.644;2022-08-25T14:07:55;24.80;99.90
16076;DHT22;8142;48.242;11.644;2022-08-25T14:10:39;24.80;99.90
16076;DHT22;8142;48.242;11.644;2022-08-25T14:13:29;24.80;99.90
16076;DHT22;8142;48.242;11.644;2022-08-25T14:16:11;24.80;99.90
16076;DHT22;8142;48.242;11.644;2022-08-25T14:18:46;24.80;99.90
16076;DHT22;8142;48.242;11.644;2022-08-25T14:21:13;24.80;99.90
16076;DHT22;8142;48.242;11.644;2022-08-25T14:23:39;24.80;99.90
16076;DHT22;8142;48.242;11.644;2022-08-25T14:26:05;24.80;99.90
16076;DHT22;8142;48.242;11.644;2022-08-25T14:28:31;24.80;99.90
16076;DHT22;8142;48.242;11.644;2022-08-25T14:31:10;24.80;99.90
16076;DHT22;8142;48.242;11.644;2022-08-25T14:33:56;24.80;99.90
16076;DHT22;8142;48.242;11.644;2022-08-25T14:36:23;24.70;99.90
16076;DHT22;8142;48.242;11.644;2022-08-25T14:38:49;24.70;99.90
16076;DHT22;8142;48.242;11.644;2022-08-25T14:41:15;24.70;99.90
16076;DHT22;8142;48.242;11.644;2022-08-25T14:43:41;24.70;99.90
16076;DHT22;8142;48.242;11.644;2022-08-25T14:46:17;24.70;99.90
16076;DHT22;8142;48.242;11.644;2022-08-25T14:48:46;24.70;99.90
16076;DHT22;8142;48.242;11.644;2022-08-25T14:51:14;24.60;99.90
16076;DHT22;8142;48.242;11.644;2022-08-25T14:53:41;24.70;99.90
16076;DHT22;8142;48.242;11.644;2022-08-25T14:56:08;24.70;99.90
16076;DHT22;8142;48.242;11.644;2022-08-25T14:58:34;24.60;99.90
16076;DHT22;8142;48.242;11.644;2022-08-25T15:01:00;24.60;99.90
16076;DHT22;8142;48.242;11.644;2022-08-25T15:03:31;24.70;99.90
16076;DHT22;8142;48.242;11.644;2022-08-25T15:05:59;24.70;99.90
16076;DHT22;8142;48.242;11.644;2022-08-25T15:08:25;24.70;99.90
16076;DHT22;8142;48.242;11.644;2022-08-25T15:11:09;24.70;99.90
16076;DHT22;8142;48.242;11.644;2022-08-25T15:13:35;24.70;99.90
16076;DHT22;8142;48.242;11.644;2022-08-25T15:16:02;24.70;99.90
16076;DHT22;8142;48.242;11.644;2022-08-25T15:18:28;24.70;99.90
16076;DHT22;8142;48.242;11.644;2022-08-25T15:20:54;24.70;99.90
16076;DHT22;8142;48.242;11.644;2022-08-25T15:23:20;24.80;99.90
16076;DHT22;8142;48.242;11.644;2022-08-25T15:25:47;24.80;99.90
16076;DHT22;8142;48.242;11.644;2022-08-25T15:28:15;24.80;99.90
16076;DHT22;8142;48.242;11.644;2022-08-25T15:30:41;24.80;99.90
16076;DHT22;8142;48.242;11.644;2022-08-25T15:33:07;24.80;99.90
16076;DHT22;8142;48.242;11.644;2022-08-25T15:35:33;24.80;99.90
16076;DHT22;8142;48.242;11.644;2022-08-25T15:37:59;24.80;99.90
16076;DHT22;8142;48.242;11.644;2022-08-25T15:40:27;24.90;99.90
16076;DHT22;8142;48.242;11.644;2022-08-25T15:42:53;24.90;99.90
16076;DHT22;8142;48.242;11.644;2022-08-25T15:45:19;24.90;99.90
16076;DHT22;8142;48.242;11.644;2022-08-25T15:47:45;25.00;99.90
16076;DHT22;8142;48.242;11.644;2022-08-25T15:50:14;25.00;99.90
16076;DHT22;8142;48.242;11.644;2022-08-25T15:52:40;25.00;99.90
16076;DHT22;8142;48.242;11.644;2022-08-25T15:55:08;25.00;99.90
16076;DHT22;8142;48.242;11.644;2022-08-25T15:57:34;25.00;99.90
16076;DHT22;8142;48.242;11.644;2022-08-25T16:00:05;25.00;99.90
16076;DHT22;8142;48.242;11.644;2022-08-25T16:02:32;25.00;99.90
16076;DHT22;8142;48.242;11.644;2022-08-25T16:04:59;25.00;99.90
16076;DHT22;8142;48.242;11.644;2022-08-25T16:07:26;25.00;99.90
16076;DHT22;8142;48.242;11.644;2022-08-25T16:09:56;25.10;99.90
16076;DHT22;8142;48.242;11.644;2022-08-25T16:12:23;25.10;99.90
16076;DHT22;8142;48.242;11.644;2022-08-25T16:14:50;25.10;99.90
16076;DHT22;8142;48.242;11.644;2022-08-25T16:17:18;25.10;99.90
16076;DHT22;8142;48.242;11.644;2022-08-25T16:19:45;25.10;99.90
16076;DHT22;8142;48.242;11.644;2022-08-25T16:22:11;25.00;99.90
16076;DHT22;8142;48.242;11.644;2022-08-25T16:24:42;25.00;99.90
16076;DHT22;8142;48.242;11.644;2022-08-25T16:27:11;25.00;99.90
16076;DHT22;8142;48.242;11.644;2022-08-25T16:29:41;25.00;99.90
16076;DHT22;8142;48.242;11.644;2022-08-25T16:32:10;25.00;99.90
16076;DHT22;8142;48.242;11.644;2022-08-25T16:34:37;24.90;99.90
16076;DHT22;8142;48.242;11.644;2022-08-25T16:37:03;24.90;99.90
16076;DHT22;8142;48.242;11.644;2022-08-25T16:39:29;24.80;99.90
16076;DHT22;8142;48.242;11.644;2022-08-25T16:41:55;24.70;99.90
16076;DHT22;8142;48.242;11.644;2022-08-25T16:44:21;24.70;99.90
16076;DHT22;8142;48.242;11.644;2022-08-25T16:46:48;24.60;99.90
16076;DHT22;8142;48.242;11.644;2022-08-25T16:49:18;24.60;99.90
16076;DHT22;8142;48.242;11.644;2022-08-25T16:51:44;24.50;99.90
16076;DHT22;8142;48.242;11.644;2022-08-25T16:54:10;24.50;99.90
16076;DHT22;8142;48.242;11.644;2022-08-25T16:56:56;24.50;99.90
16076;DHT22;8142;48.242;11.644;2022-08-25T16:59:25;24.40;99.90
16076;DHT22;8142;48.242;11.644;2022-08-25T17:01:52;24.40;99.90
16076;DHT22;8142;48.242;11.644;2022-08-25T17:04:19;24.40;99.90
16076;DHT22;8142;48.242;11.644;2022-08-25T17:06:45;24.30;99.90
16076;DHT22;8142;48.242;11.644;2022-08-25T17:09:12;24.30;99.90
16076;DHT22;8142;48.242;11.644;2022-08-25T17:11:44;24.20;99.90
16076;DHT22;8142;48.242;11.644;2022-08-25T17:14:15;24.20;99.90
16076;DHT22;8142;48.242;11.644;2022-08-25T17:16:42;24.20;99.90
16076;DHT22;8142;48.242;11.644;2022-08-25T17:19:10;24.20;99.90
16076;DHT22;8142;48.242;11.644;2022-08-25T17:21:40;24.10;99.90
16076;DHT22;8142;48.242;11.644;2022-08-25T17:24:07;24.10;99.90
16076;DHT22;8142;48.242;11.644;2022-08-25T17:26:36;24.00;99.90
16076;DHT22;8142;48.242;11.644;2022-08-25T17:29:02;24.00;99.90
16076;DHT22;8142;48.242;11.644;2022-08-25T17:31:28;24.00;99.90
16076;DHT22;8142;48.242;11.644;2022-08-25T17:33:54;24.00;99.90
16076;DHT22;8142;48.242;11.644;2022-08-25T17:36:20;23.90;99.90